59°F Temp
37°F Dewpoint
% Humidity
Temperature
16 MPH
26 KM/H
14 KTS
360°
Due North

Wind Speed
Partly Cloudy
Conditions
Pressure 1021.6 (hPa) - 30.17 (in)
Visibility 10.0 (mi) - 16.1 (km)

Current Conditions
KIAH
Location 6(mi)
Metar :KIAH 150753Z 36014G31KT 10SM FEW120 BKN250 15/03 A3017 RMK AO2 PK WND 02031/0748 SLP216 T01500033
Fri 15th March 01:53 am

Airport
  Metar Aviation API Data Provided by https://www.checkwx.com/ PHP scripts by weather34.com ©2019